Time;durP1;ratioP1;P1;durP2;ratioP2;P2;SDS_P1;SDS_P2;PMS_P1;PMS_P2;Temp;Humidity;BMP_temperature;BMP_pressure;BME280_temperature;BME280_humidity;BME280_pressure;Samples;Min_cycle;Max_cycle;Signal;HPM_P1;HPM_P2
2023/02/14 00:02:13;;;;;;;27.13;15.40;;;;;;;1.31;76.76;98493.16;5116980;28;20050;-77
2023/02/14 00:04:43;;;;;;;25.60;15.68;;;;;;;1.31;76.51;98488.03;5117157;28;20086;-77
2023/02/14 00:07:11;;;;;;;25.73;15.40;;;;;;;1.33;76.71;98491.34;5117003;28;20097;-77
2023/02/14 00:09:39;;;;;;;25.13;14.95;;;;;;;1.34;76.35;98487.91;5115724;28;20044;-77
2023/02/14 00:12:08;;;;;;;26.80;15.38;;;;;;;1.36;76.74;98496.38;5116609;28;20394;-77
2023/02/14 00:17:21;;;;;;;23.10;13.88;;;;;;;1.38;76.31;98490.22;5115037;28;20055;-77
2023/02/14 00:19:49;;;;;;;22.02;13.38;;;;;;;1.41;76.25;98484.91;5114826;28;20039;-77
2023/02/14 00:22:16;;;;;;;23.48;14.13;;;;;;;1.43;75.77;98484.84;5115974;28;20048;-77
2023/02/14 00:24:44;;;;;;;24.63;14.50;;;;;;;1.42;76.10;98485.75;5116871;28;20050;-77
2023/02/14 00:27:13;;;;;;;22.08;13.35;;;;;;;1.43;76.39;98480.53;5116087;28;20062;-77
2023/02/14 00:29:41;;;;;;;21.77;13.38;;;;;;;1.44;75.72;98484.78;5114808;28;20482;-77
2023/02/14 00:32:08;;;;;;;21.77;13.10;;;;;;;1.48;76.09;98482.88;5116671;28;20044;-77
2023/02/14 00:34:36;;;;;;;19.98;13.05;;;;;;;1.54;76.11;98479.16;5116244;28;20543;-77
2023/02/14 00:37:04;;;;;;;22.10;13.52;;;;;;;1.53;75.84;98473.19;5116424;28;20107;-77
2023/02/14 00:39:31;;;;;;;20.58;12.07;;;;;;;1.59;75.95;98478.00;5115567;28;20050;-77
2023/02/14 00:41:59;;;;;;;24.10;14.35;;;;;;;1.64;76.00;98491.47;5116598;28;20488;-77
2023/02/14 00:44:28;;;;;;;21.90;13.93;;;;;;;1.70;75.61;98485.16;5116453;28;20054;-77
2023/02/14 00:46:55;;;;;;;21.85;12.68;;;;;;;1.73;75.59;98479.03;5116375;28;20131;-77
2023/02/14 00:49:23;;;;;;;22.33;13.98;;;;;;;1.71;75.39;98478.28;5114647;28;20104;-78
2023/02/14 00:51:50;;;;;;;25.10;14.65;;;;;;;1.71;75.78;98480.88;5117343;28;20395;-77
2023/02/14 00:54:18;;;;;;;24.65;13.80;;;;;;;1.74;75.69;98478.94;5117247;28;20198;-77
2023/02/14 00:56:45;;;;;;;23.23;13.77;;;;;;;1.75;75.31;98479.78;5115043;28;20051;-77
2023/02/14 00:59:13;;;;;;;25.35;14.30;;;;;;;1.74;75.15;98480.69;5115385;28;20497;-77
2023/02/14 01:01:42;;;;;;;21.10;13.48;;;;;;;1.68;74.88;98481.00;5115973;28;20478;-77
2023/02/14 01:04:10;;;;;;;22.23;12.77;;;;;;;1.64;75.37;98480.34;5115629;28;20494;-77
2023/02/14 01:06:37;;;;;;;21.00;12.80;;;;;;;1.57;75.15;98466.94;5115432;28;20515;-77
2023/02/14 01:09:05;;;;;;;23.02;13.20;;;;;;;1.46;75.04;98479.53;5115034;28;20048;-77
2023/02/14 01:11:33;;;;;;;21.65;13.57;;;;;;;1.43;75.20;98475.38;5110846;28;20066;-77
2023/02/14 01:14:01;;;;;;;25.90;14.30;;;;;;;1.39;75.25;98480.78;5101539;28;20044;-76
2023/02/14 01:16:29;;;;;;;22.92;13.38;;;;;;;1.32;75.95;98479.44;5095735;28;20398;-77
2023/02/14 01:19:00;;;;;;;24.60;13.90;;;;;;;1.25;75.82;98481.47;5114859;28;20074;-77
2023/02/14 01:21:29;;;;;;;26.48;14.90;;;;;;;1.22;76.01;98479.91;5114617;28;20048;-77
2023/02/14 01:23:58;;;;;;;25.60;14.23;;;;;;;1.23;76.09;98484.13;5114656;28;20043;-77
2023/02/14 01:26:27;;;;;;;23.38;13.60;;;;;;;1.21;76.05;98478.22;5114660;28;20520;-77
2023/02/14 01:28:55;;;;;;;19.95;13.30;;;;;;;1.18;76.22;98483.53;5113349;28;20500;-77
2023/02/14 01:31:25;;;;;;;23.23;14.20;;;;;;;1.21;77.03;98475.66;5114374;28;20527;-77
2023/02/14 01:33:54;;;;;;;21.23;13.38;;;;;;;1.27;77.10;98486.50;5114767;28;20077;-77
2023/02/14 01:36:25;;;;;;;21.88;13.60;;;;;;;1.34;76.71;98490.47;5114984;28;20134;-77
2023/02/14 01:38:53;;;;;;;26.60;14.52;;;;;;;1.36;76.19;98491.22;5113789;28;20043;-77
2023/02/14 01:41:22;;;;;;;21.33;13.40;;;;;;;1.32;76.00;98489.72;5114680;28;20046;-77
2023/02/14 01:43:57;;;;;;;23.15;14.48;;;;;;;1.28;76.31;98493.34;5114757;28;20134;-77
2023/02/14 01:46:27;;;;;;;21.27;13.00;;;;;;;1.26;76.52;98495.16;5115394;28;20071;-77
2023/02/14 01:48:59;;;;;;;21.95;13.13;;;;;;;1.27;77.00;98497.66;5112866;28;20056;-77
2023/02/14 01:51:29;;;;;;;25.38;13.15;;;;;;;1.30;76.91;98499.25;5113662;28;20051;-77
2023/02/14 01:53:58;;;;;;;22.58;12.18;;;;;;;1.33;76.94;98496.50;5125362;28;20058;-78
2023/02/14 01:56:30;;;;;;;23.08;13.73;;;;;;;1.38;76.72;98497.94;5129694;28;20500;-77
2023/02/14 01:59:01;;;;;;;22.23;13.25;;;;;;;1.46;76.59;98496.72;5115080;28;20421;-77
2023/02/14 02:01:31;;;;;;;19.08;12.18;;;;;;;1.47;76.47;98493.25;5114149;28;20086;-77
2023/02/14 02:04:04;;;;;;;21.20;12.52;;;;;;;1.48;76.34;98495.72;5114684;28;20551;-77
2023/02/14 02:06:37;;;;;;;18.05;11.80;;;;;;;1.47;76.29;98499.22;5114859;28;20047;-77
2023/02/14 02:09:11;;;;;;;21.10;12.18;;;;;;;1.43;76.23;98497.72;5114317;28;20556;-77
2023/02/14 02:11:38;;;;;;;19.80;12.23;;;;;;;1.47;76.95;98493.25;5115033;28;20047;-77
2023/02/14 02:14:06;;;;;;;19.13;11.82;;;;;;;1.52;76.27;98492.09;5114705;28;20050;-77
2023/02/14 02:17:02;;;;;;;18.05;10.65;;;;;;;1.57;77.24;98484.13;5114852;28;20052;-77
2023/02/14 02:19:54;;;;;;;22.80;12.25;;;;;;;1.59;76.41;98496.00;5113215;28;20476;-77
2023/02/14 02:22:42;;;;;;;21.70;12.98;;;;;;;1.54;76.03;98490.28;5114833;28;20075;-77
2023/02/14 02:25:23;;;;;;;20.85;12.88;;;;;;;1.50;76.30;98480.22;5114505;28;20097;-77
2023/02/14 02:28:15;;;;;;;20.20;11.18;;;;;;;1.47;76.28;98477.81;5113757;28;20047;-77
2023/02/14 02:31:05;;;;;;;22.42;13.05;;;;;;;1.48;76.46;98475.16;5113154;28;20520;-77
2023/02/14 02:34:02;;;;;;;23.52;12.90;;;;;;;1.46;76.46;98461.53;5084360;28;20067;-76
2023/02/14 02:36:55;;;;;;;20.05;11.90;;;;;;;1.48;76.80;98469.19;5135505;27;20059;-77
2023/02/14 02:39:37;;;;;;;18.23;11.20;;;;;;;1.52;77.10;98470.69;5134697;27;20095;-77
2023/02/14 02:42:13;;;;;;;18.55;11.23;;;;;;;1.54;75.99;98469.69;5135443;27;20051;-77
2023/02/14 02:44:51;;;;;;;24.10;13.02;;;;;;;1.54;76.66;98469.69;5135262;28;20035;-77
2023/02/14 02:47:32;;;;;;;19.02;12.23;;;;;;;1.50;76.51;98468.19;5122262;28;20118;-77
2023/02/14 02:53:06;;;;;;;21.10;11.90;;;;;;;1.42;76.37;98471.16;5114713;28;20047;-77
2023/02/14 03:06:29;;;;;;;20.00;11.75;;;;;;;1.00;77.33;98462.13;5074227;28;20045;-85
2023/02/14 03:09:11;;;;;;;21.67;12.63;;;;;;;1.01;78.12;98460.41;5067017;28;20112;-85
2023/02/14 03:11:49;;;;;;;20.80;11.73;;;;;;;1.05;77.78;98461.91;5066857;28;20064;-85
2023/02/14 03:14:28;;;;;;;22.48;11.77;;;;;;;1.02;77.65;98454.34;5067764;28;20056;-84
2023/02/14 03:17:09;;;;;;;21.25;11.77;;;;;;;0.94;77.37;98453.88;5067036;28;20139;-86
2023/02/14 03:22:56;;;;;;;20.50;11.70;;;;;;;0.85;78.12;98452.59;5066159;28;20077;-85
2023/02/14 03:25:44;;;;;;;24.63;12.88;;;;;;;0.80;77.95;98452.00;5065446;28;20056;-85
2023/02/14 03:28:29;;;;;;;18.45;10.75;;;;;;;0.71;78.13;98455.84;5066719;28;20048;-86
2023/02/14 03:31:25;;;;;;;20.27;11.23;;;;;;;0.68;78.33;98468.00;5069829;28;20120;-85
2023/02/14 03:34:14;;;;;;;19.05;10.65;;;;;;;0.63;78.07;98470.78;5071322;28;20083;-86
2023/02/14 03:36:55;;;;;;;20.08;11.13;;;;;;;0.61;78.32;98472.59;5071774;28;20079;-87
2023/02/14 03:39:37;;;;;;;25.38;11.45;;;;;;;0.64;78.08;98477.59;5069155;28;20053;-85
2023/02/14 03:42:29;;;;;;;22.90;10.40;;;;;;;0.69;78.50;98470.50;5071429;28;20053;-86
2023/02/14 03:45:13;;;;;;;18.90;11.20;;;;;;;0.69;78.05;98465.34;5071468;28;20049;-84
2023/02/14 03:47:59;;;;;;;18.83;10.55;;;;;;;0.74;78.17;98476.22;5071962;28;20052;-89
2023/02/14 03:50:49;;;;;;;16.52;9.80;;;;;;;0.75;78.64;98470.22;5073031;28;20064;-88
2023/02/14 03:53:30;;;;;;;19.60;11.23;;;;;;;0.78;78.05;98467.47;5072063;28;20045;-86
2023/02/14 03:56:15;;;;;;;22.05;11.00;;;;;;;0.80;78.53;98468.25;5070534;28;20045;-85
2023/02/14 03:59:13;;;;;;;21.58;12.35;;;;;;;0.81;78.61;98464.78;5070870;28;20103;-86
2023/02/14 04:01:58;;;;;;;21.20;12.07;;;;;;;0.82;77.97;98461.28;5071055;28;20064;-86
2023/02/14 04:04:44;;;;;;;17.25;10.77;;;;;;;0.81;77.50;98457.06;5071602;28;20136;-86
2023/02/14 04:07:22;;;;;;;19.40;11.15;;;;;;;0.85;78.08;98459.47;5071313;28;20060;-86
2023/02/14 04:10:02;;;;;;;20.90;11.82;;;;;;;0.94;78.12;98459.03;5071582;28;20048;-85
2023/02/14 04:12:39;;;;;;;19.50;10.82;;;;;;;0.96;77.76;98462.34;5071213;28;20049;-85
2023/02/14 04:15:17;;;;;;;23.67;11.50;;;;;;;0.94;77.63;98464.16;5073628;28;20049;-88
2023/02/14 04:20:49;;;;;;;20.90;11.43;;;;;;;0.91;77.39;98467.72;5070254;28;20086;-85
2023/02/14 04:23:44;;;;;;;21.25;12.43;;;;;;;0.90;77.85;98462.69;5070271;28;20072;-87
2023/02/14 04:26:22;;;;;;;20.67;11.35;;;;;;;0.93;77.62;98467.66;5070383;28;20068;-85
2023/02/14 04:29:05;;;;;;;24.20;12.13;;;;;;;0.94;77.67;98465.00;5071144;28;20068;-85
2023/02/14 04:31:42;;;;;;;18.27;10.80;;;;;;;0.96;77.57;98459.78;5075492;28;20103;-87
2023/02/14 04:34:46;;;;;;;19.50;10.73;;;;;;;1.00;77.42;98466.44;5072376;28;20178;-87
2023/02/14 04:37:22;;;;;;;17.70;10.77;;;;;;;1.02;77.30;98464.63;5070533;28;20041;-86
2023/02/14 04:40:00;;;;;;;17.92;11.15;;;;;;;1.02;77.32;98462.88;5070579;28;20053;-84
2023/02/14 04:42:42;;;;;;;16.73;9.88;;;;;;;1.04;77.51;98457.66;5070108;28;20118;-85
2023/02/14 04:45:25;;;;;;;16.33;10.23;;;;;;;1.05;77.50;98456.78;5070628;28;20052;-86
2023/02/14 04:48:08;;;;;;;18.90;10.90;;;;;;;1.08;77.27;98454.03;5069346;28;20080;-84
2023/02/14 04:50:42;;;;;;;17.35;10.52;;;;;;;1.13;77.46;98454.63;5070276;28;20056;-86
2023/02/14 04:53:23;;;;;;;18.00;11.55;;;;;;;1.15;77.33;98450.25;5069227;28;20113;-87
2023/02/14 04:56:04;;;;;;;20.40;11.40;;;;;;;1.18;76.89;98452.69;5069002;28;20079;-85
2023/02/14 04:58:52;;;;;;;17.02;10.20;;;;;;;1.17;77.04;98456.13;5066100;28;20053;-84
2023/02/14 05:01:33;;;;;;;16.90;10.68;;;;;;;1.19;77.28;98448.34;5067112;28;20075;-84
2023/02/14 05:04:15;;;;;;;19.30;10.63;;;;;;;1.22;76.58;98449.03;5069953;28;20059;-87
2023/02/14 05:06:55;;;;;;;16.10;10.20;;;;;;;1.18;77.09;98442.41;5070160;28;20059;-86
2023/02/14 05:09:28;;;;;;;18.05;10.48;;;;;;;1.19;76.56;98432.94;5072261;28;20120;-84
2023/02/14 05:12:08;;;;;;;22.33;12.40;;;;;;;1.19;76.40;98432.94;5077389;28;20037;-87
2023/02/14 05:14:48;;;;;;;21.85;12.23;;;;;;;1.12;76.70;98434.16;5078426;28;20040;-88
2023/02/14 05:17:25;;;;;;;18.70;10.50;;;;;;;1.08;76.58;98441.19;5071509;28;20049;-87
2023/02/14 05:55:03;;;;;;;17.00;9.90;;;;;;;0.67;76.94;98426.06;5066674;28;20493;-83
2023/02/14 05:57:45;;;;;;;20.63;10.80;;;;;;;0.68;77.45;98435.47;5066974;28;20044;-84
2023/02/14 06:00:22;;;;;;;16.92;9.75;;;;;;;0.67;77.35;98433.78;5067387;28;20087;-84
2023/02/14 06:02:57;;;;;;;15.40;9.95;;;;;;;0.72;77.66;98444.69;5067639;28;20487;-84
2023/02/14 06:05:29;;;;;;;18.05;10.52;;;;;;;0.73;77.18;98442.94;5085329;22;20072;-76
2023/02/14 06:07:56;;;;;;;17.52;10.43;;;;;;;0.69;77.25;98433.72;5072899;28;20075;-78
2023/02/14 06:10:25;;;;;;;16.92;9.60;;;;;;;0.69;77.24;98439.69;5074001;28;20481;-76
2023/02/14 06:12:53;;;;;;;15.43;10.63;;;;;;;0.65;76.94;98433.03;5056021;28;20055;-76
2023/02/14 06:15:21;;;;;;;17.55;10.90;;;;;;;0.60;77.50;98429.84;5063325;28;20521;-77
2023/02/14 06:17:53;;;;;;;18.65;10.75;;;;;;;0.60;77.34;98440.13;5065669;28;20123;-76
2023/02/14 06:20:22;;;;;;;20.00;10.80;;;;;;;0.62;77.52;98433.19;5072040;28;20131;-75
2023/02/14 06:22:51;;;;;;;16.45;9.55;;;;;;;0.67;77.43;98436.34;5072205;28;20045;-76
2023/02/14 06:25:19;;;;;;;17.52;10.15;;;;;;;0.72;77.36;98436.97;5070836;28;20575;-76
2023/02/14 06:27:48;;;;;;;15.50;9.77;;;;;;;0.74;77.29;98447.16;5072816;28;20124;-76
2023/02/14 06:30:17;;;;;;;16.67;10.77;;;;;;;0.71;77.19;98453.28;5065587;28;20053;-76
2023/02/14 06:32:45;;;;;;;15.60;10.18;;;;;;;0.66;77.03;98447.53;5073130;28;20502;-76
2023/02/14 06:35:13;;;;;;;16.08;10.38;;;;;;;0.69;77.30;98449.13;5071673;28;20052;-76
2023/02/14 06:37:41;;;;;;;15.32;10.25;;;;;;;0.71;76.82;98445.56;5072953;28;20055;-77
2023/02/14 06:40:09;;;;;;;16.92;10.07;;;;;;;0.77;77.08;98454.72;5056884;28;20049;-78
2023/02/14 06:42:37;;;;;;;18.05;10.77;;;;;;;0.82;76.99;98456.16;5053368;28;20145;-76
2023/02/14 06:45:07;;;;;;;16.48;10.55;;;;;;;0.87;77.11;98463.63;5065582;28;20055;-75
2023/02/14 06:47:35;;;;;;;15.60;10.38;;;;;;;0.88;76.71;98454.22;5065340;28;20044;-79
2023/02/14 06:50:04;;;;;;;16.67;10.38;;;;;;;0.87;76.43;98453.34;5051268;28;20049;-76
2023/02/14 06:52:31;;;;;;;17.20;10.23;;;;;;;0.79;76.27;98461.44;5051110;28;20052;-75
2023/02/14 06:54:59;;;;;;;16.92;10.40;;;;;;;0.73;76.07;98472.00;5051645;28;20053;-76
2023/02/14 06:57:26;;;;;;;16.13;10.38;;;;;;;0.66;76.28;98464.69;5051562;28;20048;-76
2023/02/14 06:59:54;;;;;;;17.50;10.63;;;;;;;0.59;76.54;98472.69;5051022;28;20515;-76
2023/02/14 07:02:23;;;;;;;16.58;10.73;;;;;;;0.55;77.09;98466.03;5051679;28;20152;-75
2023/02/14 07:04:51;;;;;;;19.17;10.13;;;;;;;0.54;77.20;98466.91;5051656;28;20397;-76
2023/02/14 07:07:19;;;;;;;15.13;9.90;;;;;;;0.56;77.19;98461.72;5053352;28;20049;-76
2023/02/14 07:09:46;;;;;;;16.00;9.70;;;;;;;0.53;77.21;98459.31;5052710;28;20059;-75
2023/02/14 07:12:14;;;;;;;16.17;10.52;;;;;;;0.54;77.57;98458.41;5053291;28;20049;-75
2023/02/14 07:14:41;;;;;;;16.88;10.70;;;;;;;0.56;77.45;98464.28;5053045;28;20403;-76
2023/02/14 07:17:09;;;;;;;16.08;10.35;;;;;;;0.55;76.95;98460.91;5053268;28;20060;-76
2023/02/14 07:19:38;;;;;;;15.90;10.10;;;;;;;0.55;77.45;98462.63;5052078;28;20107;-75
2023/02/14 07:22:05;;;;;;;18.02;10.80;;;;;;;0.58;77.29;98459.91;5053122;28;20053;-75
2023/02/14 07:24:33;;;;;;;16.70;9.93;;;;;;;0.67;77.33;98459.47;5052521;28;20045;-76
2023/02/14 07:27:00;;;;;;;18.23;9.98;;;;;;;0.75;77.29;98462.50;5053375;28;20088;-76
2023/02/14 07:29:28;;;;;;;14.93;9.18;;;;;;;0.81;77.03;98456.25;5052422;28;20049;-76
2023/02/14 07:31:55;;;;;;;16.20;10.15;;;;;;;0.85;76.74;98460.31;5061715;28;20079;-76
2023/02/14 07:34:23;;;;;;;15.95;9.85;;;;;;;0.90;76.57;98449.81;5071154;28;20056;-75
2023/02/14 07:36:52;;;;;;;14.25;9.30;;;;;;;0.93;76.60;98454.81;5066608;28;20072;-78
2023/02/14 07:39:20;;;;;;;15.13;9.15;;;;;;;0.98;76.92;98445.97;5061905;28;20045;-78
2023/02/14 07:41:47;;;;;;;14.20;8.60;;;;;;;1.00;76.30;98444.13;5054987;28;20133;-76
2023/02/14 07:44:15;;;;;;;13.90;9.40;;;;;;;0.98;76.29;98445.97;5053347;28;20158;-76
2023/02/14 07:46:42;;;;;;;14.20;9.02;;;;;;;0.99;76.40;98439.91;5053325;28;20443;-76
2023/02/14 07:49:10;;;;;;;15.57;10.32;;;;;;;0.98;75.81;98445.97;5052330;28;20576;-76
2023/02/14 07:51:38;;;;;;;15.23;9.20;;;;;;;0.96;75.80;98444.34;5053146;28;20132;-76
2023/02/14 07:54:07;;;;;;;13.00;9.02;;;;;;;0.97;75.97;98444.28;5052758;28;20049;-75
2023/02/14 07:56:34;;;;;;;14.93;9.75;;;;;;;1.00;76.28;98444.13;5052741;28;20045;-76
2023/02/14 07:59:02;;;;;;;16.17;10.60;;;;;;;0.99;75.76;98446.78;5052039;28;20546;-75
2023/02/14 08:01:30;;;;;;;15.63;10.02;;;;;;;0.94;75.54;98441.88;5052349;28;20053;-76
2023/02/14 08:03:58;;;;;;;14.43;9.93;;;;;;;0.92;75.49;98438.56;5052210;28;20063;-76
2023/02/14 08:06:26;;;;;;;15.70;9.85;;;;;;;0.91;75.75;98444.59;5052190;28;20049;-76
2023/02/14 08:08:54;;;;;;;16.85;10.60;;;;;;;0.93;75.60;98439.38;5051421;28;20041;-76
2023/02/14 08:14:08;;;;;;;15.10;9.70;;;;;;;0.89;75.46;98445.56;5052507;28;20053;-75
2023/02/14 08:16:37;;;;;;;17.48;11.13;;;;;;;0.93;76.02;98436.81;5052992;28;20550;-78
2023/02/14 08:19:04;;;;;;;17.00;10.93;;;;;;;0.97;75.79;98440.91;5054611;28;20140;-76
2023/02/14 08:21:32;;;;;;;14.50;10.38;;;;;;;1.01;75.67;98445.81;5055535;28;20071;-75
2023/02/14 08:23:59;;;;;;;15.40;10.80;;;;;;;1.10;75.68;98448.81;5055716;28;20128;-76
2023/02/14 08:26:28;;;;;;;14.35;9.32;;;;;;;1.22;75.54;98449.03;5056245;28;20052;-76
2023/02/14 08:28:56;;;;;;;18.45;11.35;;;;;;;1.41;75.68;98443.78;5055025;28;20131;-76
2023/02/14 08:31:25;;;;;;;16.73;10.75;;;;;;;1.66;75.41;98447.63;5055904;28;20503;-76
2023/02/14 08:34:02;;;;;;;18.70;10.63;;;;;;;1.95;74.61;98451.25;5055756;28;20049;-76
2023/02/14 08:36:29;;;;;;;14.77;9.73;;;;;;;2.19;74.11;98436.22;5055736;28;20048;-76
2023/02/14 08:38:57;;;;;;;14.75;9.55;;;;;;;2.34;73.26;98441.44;5055162;28;20566;-76
2023/02/14 08:41:25;;;;;;;15.50;10.32;;;;;;;2.48;72.79;98437.19;5055460;28;20056;-76
2023/02/14 08:43:54;;;;;;;15.95;10.30;;;;;;;2.66;72.40;98437.88;5055481;28;20127;-76
2023/02/14 08:46:21;;;;;;;17.55;11.02;;;;;;;2.85;72.29;98429.94;5055058;28;20140;-76
2023/02/14 08:48:49;;;;;;;16.52;10.32;;;;;;;3.12;71.82;98431.84;5054561;28;20123;-76
2023/02/14 08:51:17;;;;;;;15.02;9.45;;;;;;;3.36;71.11;98426.16;5054840;28;20078;-76
2023/02/14 08:53:45;;;;;;;14.10;9.88;;;;;;;3.61;70.43;98425.53;5055124;28;20052;-76
2023/02/14 08:56:14;;;;;;;13.98;9.35;;;;;;;3.85;70.11;98418.03;5054942;28;20495;-76
2023/02/14 08:58:42;;;;;;;14.55;10.13;;;;;;;4.07;69.16;98430.44;5054324;28;20041;-76
2023/02/14 09:01:13;;;;;;;13.43;10.02;;;;;;;4.25;68.13;98420.69;5055013;28;20069;-76
2023/02/14 09:03:40;;;;;;;14.75;10.05;;;;;;;4.44;68.39;98421.19;5055194;28;20049;-76
2023/02/14 09:06:11;;;;;;;13.98;9.57;;;;;;;4.62;67.34;98411.41;5054796;28;20053;-76
2023/02/14 09:08:40;;;;;;;12.60;9.07;;;;;;;4.83;67.24;98414.34;5054018;28;20136;-76
2023/02/14 09:11:08;;;;;;;13.85;8.95;;;;;;;4.99;66.80;98418.50;5054591;28;20548;-76
2023/02/14 09:13:36;;;;;;;14.57;8.60;;;;;;;5.11;65.79;98415.09;5054637;28;20045;-76
2023/02/14 09:16:05;;;;;;;15.00;9.57;;;;;;;5.25;65.46;98416.78;5054412;28;20075;-77
2023/02/14 09:18:34;;;;;;;13.45;9.88;;;;;;;5.36;64.87;98412.50;5053767;28;20098;-76
2023/02/14 09:21:02;;;;;;;12.52;9.63;;;;;;;5.49;64.78;98407.34;5054436;28;20049;-76
2023/02/14 09:23:30;;;;;;;13.73;9.90;;;;;;;5.69;64.84;98413.72;5054235;28;20148;-77
2023/02/14 09:26:01;;;;;;;13.77;9.88;;;;;;;5.90;63.87;98401.06;5054061;28;20057;-76
2023/02/14 09:28:28;;;;;;;12.40;9.23;;;;;;;6.13;63.78;98398.63;5053083;28;20140;-76
2023/02/14 09:30:56;;;;;;;12.60;8.63;;;;;;;6.31;63.18;98402.47;5053924;28;20053;-76
2023/02/14 09:33:26;;;;;;;14.48;9.25;;;;;;;6.49;63.06;98400.31;5054103;28;20507;-76
2023/02/14 09:38:42;;;;;;;14.27;10.13;;;;;;;6.85;61.76;98408.13;5052986;28;20045;-77
2023/02/14 09:41:37;;;;;;;11.68;8.63;;;;;;;6.97;60.59;98400.22;5053761;28;20049;-76
2023/02/14 09:44:07;;;;;;;12.02;9.38;;;;;;;7.17;60.62;98406.53;5053580;28;20045;-76
2023/02/14 09:46:48;;;;;;;14.55;10.23;;;;;;;7.21;59.23;98412.31;5053641;28;20056;-77
2023/02/14 09:49:19;;;;;;;13.05;9.30;;;;;;;7.32;59.37;98401.91;5053045;28;20052;-77
2023/02/14 09:51:52;;;;;;;13.13;9.65;;;;;;;7.49;59.80;98399.81;5053862;28;20122;-77
2023/02/14 09:54:26;;;;;;;13.45;10.38;;;;;;;7.67;60.07;98393.19;5053493;28;20053;-77
2023/02/14 09:56:59;;;;;;;13.20;9.90;;;;;;;7.86;58.41;98389.19;5053865;28;20049;-77
2023/02/14 09:59:29;;;;;;;;;;;;;;;8.02;58.08;98395.66;5053112;28;20049;-77
2023/02/14 10:02:02;;;;;;;12.30;8.60;;;;;;;8.17;58.08;98393.59;5053483;28;19927;-76
2023/02/14 10:04:34;;;;;;;12.52;10.18;;;;;;;8.31;58.14;98399.44;5053195;28;20534;-76
2023/02/14 10:07:10;;;;;;;12.40;9.38;;;;;;;8.38;56.59;98400.63;5053491;28;20052;-77
2023/02/14 10:09:49;;;;;;;11.85;8.98;;;;;;;8.48;56.51;98395.53;5052739;28;20423;-77
2023/02/14 10:12:23;;;;;;;14.48;9.52;;;;;;;8.53;56.66;98385.59;5054069;28;20154;-77
2023/02/14 10:14:52;;;;;;;12.60;8.70;;;;;;;8.63;56.83;98392.50;5053620;28;20688;-77
2023/02/14 10:17:25;;;;;;;12.57;9.90;;;;;;;8.73;56.56;98391.78;5054847;28;20049;-77
2023/02/14 10:19:57;;;;;;;15.02;9.95;;;;;;;8.88;55.46;98387.91;5054365;28;20422;-77
2023/02/14 10:22:34;;;;;;;13.32;9.90;;;;;;;8.95;55.33;98394.25;5066419;28;20045;-77
2023/02/14 10:25:07;;;;;;;11.25;8.40;;;;;;;9.10;55.82;98399.13;5061800;28;20117;-77
2023/02/14 10:27:41;;;;;;;13.10;9.73;;;;;;;9.24;55.02;98388.38;5054086;28;20048;-77
2023/02/14 10:30:13;;;;;;;11.80;9.13;;;;;;;9.28;54.09;98385.38;5053005;28;20041;-77
2023/02/14 10:32:45;;;;;;;12.85;9.80;;;;;;;9.36;54.36;98387.34;5053698;28;20077;-77
2023/02/14 10:35:23;;;;;;;15.13;10.23;;;;;;;9.46;53.71;98390.81;5053419;28;20059;-77
2023/02/14 10:38:05;;;;;;;12.95;9.80;;;;;;;9.57;53.16;98389.06;5062388;28;20057;-76
2023/02/14 10:40:47;;;;;;;11.40;9.53;;;;;;;9.57;52.78;98386.47;5073031;28;20041;-78
2023/02/14 10:43:30;;;;;;;15.43;9.77;;;;;;;9.54;52.70;98381.53;5072968;28;20076;-77
2023/02/14 10:46:05;;;;;;;12.15;9.18;;;;;;;9.51;53.33;98380.03;5072339;28;20140;-77
2023/02/14 10:48:45;;;;;;;13.23;8.38;;;;;;;9.60;52.93;98378.38;5070838;28;20045;-77
2023/02/14 10:51:18;;;;;;;13.90;9.20;;;;;;;9.70;52.68;98371.44;5061130;28;20407;-76
2023/02/14 10:54:00;;;;;;;13.50;9.63;;;;;;;9.72;51.88;98366.91;5054071;28;20064;-77
2023/02/14 10:56:34;;;;;;;10.15;8.68;;;;;;;9.76;52.81;98362.25;5053635;28;20140;-77
2023/02/14 10:59:15;;;;;;;11.02;8.73;;;;;;;9.86;52.18;98365.69;5052142;28;20151;-77
2023/02/14 11:01:44;;;;;;;14.45;9.90;;;;;;;9.88;52.27;98351.59;5052691;28;20052;-77
2023/02/14 11:04:13;;;;;;;11.88;8.70;;;;;;;9.95;52.74;98353.66;5052231;28;20136;-77
2023/02/14 11:06:41;;;;;;;12.75;9.13;;;;;;;10.02;52.18;98347.78;5052269;28;20053;-77
2023/02/14 11:09:11;;;;;;;9.88;8.10;;;;;;;10.15;52.36;98344.09;5051547;28;20064;-77
2023/02/14 11:11:43;;;;;;;11.35;9.00;;;;;;;10.27;51.36;98341.19;5052072;28;20498;-77
2023/02/14 11:14:20;;;;;;;11.25;9.00;;;;;;;10.31;51.47;98347.81;5052035;28;20064;-77
2023/02/14 11:16:53;;;;;;;13.65;9.57;;;;;;;10.45;51.71;98345.75;5052267;28;20068;-78
2023/02/14 11:19:25;;;;;;;9.48;7.68;;;;;;;10.65;51.68;98341.38;5051470;28;20045;-77
2023/02/14 11:21:54;;;;;;;9.65;8.23;;;;;;;10.86;50.82;98330.75;5052196;28;20127;-77
2023/02/14 11:24:32;;;;;;;8.95;7.95;;;;;;;11.00;49.50;98329.47;5051911;28;20140;-77
2023/02/14 11:27:03;;;;;;;12.68;8.55;;;;;;;11.16;49.90;98326.28;5052336;28;20049;-77
2023/02/14 11:29:35;;;;;;;10.60;8.35;;;;;;;11.36;49.24;98327.00;5051370;28;20080;-77
2023/02/14 11:32:09;;;;;;;10.55;8.75;;;;;;;11.53;48.97;98319.22;5052415;28;20513;-77
2023/02/14 11:34:38;;;;;;;10.35;8.35;;;;;;;11.70;49.25;98319.44;5052001;28;20136;-77
2023/02/14 11:37:18;;;;;;;10.43;8.77;;;;;;;11.82;48.07;98315.63;5052271;28;20053;-77
2023/02/14 11:39:48;;;;;;;10.43;8.40;;;;;;;11.88;47.91;98312.44;5051304;28;20111;-77
2023/02/14 11:42:34;;;;;;;10.10;7.95;;;;;;;12.02;47.81;98312.91;5052176;28;20517;-77
2023/02/14 11:45:04;;;;;;;12.00;9.32;;;;;;;12.18;47.71;98301.75;5058454;28;20487;-78
2023/02/14 11:47:36;;;;;;;9.32;7.60;;;;;;;12.32;48.13;98309.09;5058218;28;20056;-78
2023/02/14 11:50:06;;;;;;;9.23;7.88;;;;;;;12.47;47.38;98306.78;5053656;28;20044;-77
2023/02/14 11:52:39;;;;;;;11.20;8.48;;;;;;;12.65;46.70;98309.34;5056449;28;20530;-77
2023/02/14 11:55:24;;;;;;;10.20;8.52;;;;;;;12.79;45.65;98298.34;5056279;28;20067;-77
2023/02/14 11:57:52;;;;;;;8.40;7.30;;;;;;;12.88;46.36;98297.41;5055210;28;20449;-77
2023/02/14 12:00:22;;;;;;;10.98;7.97;;;;;;;13.02;46.44;98301.25;5056157;28;20045;-77
2023/02/14 12:02:50;;;;;;;9.93;7.43;;;;;;;13.18;46.17;98290.84;5056429;28;20045;-77
2023/02/14 12:07:58;;;;;;;13.82;9.35;;;;;;;13.54;45.46;98280.22;5163180;22;20050;-80
2023/02/14 12:10:34;;;;;;;11.38;8.32;;;;;;;13.70;44.18;98273.38;5101796;28;20068;-80
2023/02/14 12:13:26;;;;;;;13.68;8.18;;;;;;;13.91;43.85;98275.56;5085092;28;20100;-81
2023/02/14 12:16:00;;;;;;;10.65;8.50;;;;;;;14.09;44.08;98265.72;5114367;28;20032;-80
2023/02/14 12:18:47;;;;;;;10.85;8.98;;;;;;;14.24;42.94;98259.84;5121673;28;20038;-80
2023/02/14 12:21:43;;;;;;;10.88;8.98;;;;;;;14.34;42.40;98265.72;5121746;28;20056;-80
2023/02/14 12:24:31;;;;;;;9.77;8.15;;;;;;;14.31;42.67;98251.13;5114152;28;20032;-80
2023/02/14 12:27:21;;;;;;;9.50;8.20;;;;;;;14.21;43.23;98255.72;5121582;28;20058;-79
2023/02/14 12:30:04;;;;;;;13.82;7.60;;;;;;;14.15;42.81;98251.13;5121412;27;20032;-80
2023/02/14 12:32:36;;;;;;;9.20;7.85;;;;;;;14.06;43.60;98252.94;5121441;27;20126;-79
2023/02/14 12:35:17;;;;;;;9.05;8.13;;;;;;;13.90;43.26;98250.28;5121208;28;20036;-79
2023/02/14 12:38:03;;;;;;;10.02;7.78;;;;;;;13.74;43.27;98243.22;5121274;28;20028;-81
2023/02/14 12:40:52;;;;;;;9.43;8.40;;;;;;;13.55;43.47;98241.69;5121246;28;20112;-80
2023/02/14 12:43:42;;;;;;;11.30;8.57;;;;;;;13.34;44.17;98232.47;5121422;28;20075;-79
2023/02/14 12:46:45;;;;;;;9.35;7.90;;;;;;;13.24;44.47;98225.69;5121388;28;20059;-79
2023/02/14 12:49:27;;;;;;;;;;;;;;;13.15;45.36;98228.28;5105843;28;20062;-79
2023/02/14 12:52:10;;;;;;;11.30;8.35;;;;;;;13.05;45.65;98222.31;5121047;28;19908;-79
2023/02/14 12:54:56;;;;;;;10.00;8.32;;;;;;;12.97;45.34;98225.75;5120907;28;20102;-80
2023/02/14 12:57:37;;;;;;;11.18;8.82;;;;;;;12.87;45.78;98224.22;5121069;28;20099;-80
2023/02/14 13:00:26;;;;;;;10.95;8.77;;;;;;;12.70;45.77;98224.16;5120984;28;20056;-80
2023/02/14 13:03:31;;;;;;;11.73;8.00;;;;;;;12.65;46.76;98225.56;5120430;28;20039;-80
2023/02/14 13:06:10;;;;;;;11.70;8.98;;;;;;;12.55;46.10;98221.28;5120814;28;20091;-81
2023/02/14 13:09:00;;;;;;;12.93;9.17;;;;;;;12.25;46.52;98212.06;5120726;28;20079;-80